sensor_id;sensor_type;location;lat;lon;timestamp;P1;durP1;ratioP1;P2;durP2;ratioP2
70369;SDS011;57790;51.356;-2.906;2023-05-31T00:02:21;7.57;;;2.08;;
70369;SDS011;57790;51.356;-2.906;2023-05-31T00:05:22;6.27;;;1.60;;
70369;SDS011;57790;51.356;-2.906;2023-05-31T00:08:22;7.10;;;2.03;;
70369;SDS011;57790;51.356;-2.906;2023-05-31T00:11:23;7.87;;;1.90;;
70369;SDS011;57790;51.356;-2.906;2023-05-31T00:14:25;6.85;;;1.88;;
70369;SDS011;57790;51.356;-2.906;2023-05-31T00:17:26;7.60;;;1.73;;
70369;SDS011;57790;51.356;-2.906;2023-05-31T00:20:26;7.07;;;1.90;;
70369;SDS011;57790;51.356;-2.906;2023-05-31T00:23:27;7.33;;;2.00;;
70369;SDS011;57790;51.356;-2.906;2023-05-31T00:26:27;6.80;;;1.80;;
70369;SDS011;57790;51.356;-2.906;2023-05-31T00:29:28;7.63;;;2.23;;
70369;SDS011;57790;51.356;-2.906;2023-05-31T00:32:29;7.43;;;1.95;;
70369;SDS011;57790;51.356;-2.906;2023-05-31T00:35:29;8.47;;;2.00;;
70369;SDS011;57790;51.356;-2.906;2023-05-31T00:38:30;7.53;;;1.95;;
70369;SDS011;57790;51.356;-2.906;2023-05-31T00:41:30;7.07;;;1.70;;
70369;SDS011;57790;51.356;-2.906;2023-05-31T00:44:30;5.00;;;1.57;;
70369;SDS011;57790;51.356;-2.906;2023-05-31T00:47:31;6.17;;;1.63;;
70369;SDS011;57790;51.356;-2.906;2023-05-31T00:50:31;5.97;;;1.60;;
70369;SDS011;57790;51.356;-2.906;2023-05-31T00:53:32;6.07;;;1.83;;
70369;SDS011;57790;51.356;-2.906;2023-05-31T00:56:33;6.90;;;1.80;;
70369;SDS011;57790;51.356;-2.906;2023-05-31T00:59:34;7.57;;;1.90;;
70369;SDS011;57790;51.356;-2.906;2023-05-31T01:02:35;7.95;;;2.10;;
70369;SDS011;57790;51.356;-2.906;2023-05-31T01:05:38;5.70;;;1.80;;
70369;SDS011;57790;51.356;-2.906;2023-05-31T01:08:38;5.63;;;1.50;;
70369;SDS011;57790;51.356;-2.906;2023-05-31T01:21:54;5.88;;;1.40;;
70369;SDS011;57790;51.356;-2.906;2023-05-31T01:28:51;5.68;;;1.27;;
70369;SDS011;57790;51.356;-2.906;2023-05-31T01:31:55;5.03;;;1.20;;
70369;SDS011;57790;51.356;-2.906;2023-05-31T01:34:58;3.85;;;0.93;;
70369;SDS011;57790;51.356;-2.906;2023-05-31T01:37:59;3.75;;;1.20;;
70369;SDS011;57790;51.356;-2.906;2023-05-31T01:41:00;3.23;;;0.97;;
70369;SDS011;57790;51.356;-2.906;2023-05-31T01:44:04;5.70;;;0.95;;
70369;SDS011;57790;51.356;-2.906;2023-05-31T01:47:06;3.45;;;0.93;;
70369;SDS011;57790;51.356;-2.906;2023-05-31T01:50:08;3.03;;;0.90;;
70369;SDS011;57790;51.356;-2.906;2023-05-31T01:53:11;3.67;;;0.97;;
70369;SDS011;57790;51.356;-2.906;2023-05-31T01:56:12;3.05;;;0.70;;
70369;SDS011;57790;51.356;-2.906;2023-05-31T01:59:13;3.00;;;0.77;;
70369;SDS011;57790;51.356;-2.906;2023-05-31T02:02:15;2.40;;;0.60;;
70369;SDS011;57790;51.356;-2.906;2023-05-31T02:05:17;2.67;;;0.70;;
70369;SDS011;57790;51.356;-2.906;2023-05-31T02:08:17;3.33;;;0.73;;
70369;SDS011;57790;51.356;-2.906;2023-05-31T02:11:17;3.87;;;0.87;;
70369;SDS011;57790;51.356;-2.906;2023-05-31T02:14:18;1.77;;;0.60;;
70369;SDS011;57790;51.356;-2.906;2023-05-31T02:17:18;2.33;;;0.67;;
70369;SDS011;57790;51.356;-2.906;2023-05-31T02:20:23;2.72;;;0.73;;
70369;SDS011;57790;51.356;-2.906;2023-05-31T02:23:23;1.67;;;0.50;;
70369;SDS011;57790;51.356;-2.906;2023-05-31T02:26:24;3.10;;;0.50;;
70369;SDS011;57790;51.356;-2.906;2023-05-31T02:29:24;1.83;;;0.50;;
70369;SDS011;57790;51.356;-2.906;2023-05-31T02:32:25;1.42;;;0.50;;
70369;SDS011;57790;51.356;-2.906;2023-05-31T02:35:26;2.23;;;0.60;;
70369;SDS011;57790;51.356;-2.906;2023-05-31T02:38:26;2.13;;;0.40;;
70369;SDS011;57790;51.356;-2.906;2023-05-31T02:41:27;1.37;;;0.40;;
70369;SDS011;57790;51.356;-2.906;2023-05-31T02:44:27;2.80;;;0.70;;
70369;SDS011;57790;51.356;-2.906;2023-05-31T02:47:27;1.67;;;0.40;;
70369;SDS011;57790;51.356;-2.906;2023-05-31T02:50:28;0.80;;;0.30;;
70369;SDS011;57790;51.356;-2.906;2023-05-31T02:53:28;1.30;;;0.40;;
70369;SDS011;57790;51.356;-2.906;2023-05-31T02:56:30;1.80;;;0.50;;
70369;SDS011;57790;51.356;-2.906;2023-05-31T02:59:31;1.65;;;0.40;;
70369;SDS011;57790;51.356;-2.906;2023-05-31T03:02:31;1.70;;;0.53;;
70369;SDS011;57790;51.356;-2.906;2023-05-31T03:05:31;1.40;;;0.50;;
70369;SDS011;57790;51.356;-2.906;2023-05-31T03:08:33;2.47;;;0.60;;
70369;SDS011;57790;51.356;-2.906;2023-05-31T03:11:34;1.97;;;0.57;;
70369;SDS011;57790;51.356;-2.906;2023-05-31T03:14:34;2.30;;;0.50;;
70369;SDS011;57790;51.356;-2.906;2023-05-31T03:17:35;1.17;;;0.40;;
70369;SDS011;57790;51.356;-2.906;2023-05-31T03:20:37;1.50;;;0.40;;
70369;SDS011;57790;51.356;-2.906;2023-05-31T03:23:38;2.22;;;0.60;;
70369;SDS011;57790;51.356;-2.906;2023-05-31T03:26:38;1.97;;;0.50;;
70369;SDS011;57790;51.356;-2.906;2023-05-31T03:29:40;1.60;;;0.50;;
70369;SDS011;57790;51.356;-2.906;2023-05-31T03:32:41;1.87;;;0.50;;
70369;SDS011;57790;51.356;-2.906;2023-05-31T03:35:42;2.47;;;0.60;;
70369;SDS011;57790;51.356;-2.906;2023-05-31T03:38:42;2.13;;;0.50;;
70369;SDS011;57790;51.356;-2.906;2023-05-31T03:41:43;2.30;;;0.70;;
70369;SDS011;57790;51.356;-2.906;2023-05-31T03:44:43;1.73;;;0.50;;
70369;SDS011;57790;51.356;-2.906;2023-05-31T03:47:43;1.83;;;0.60;;
70369;SDS011;57790;51.356;-2.906;2023-05-31T03:50:44;1.20;;;0.40;;
70369;SDS011;57790;51.356;-2.906;2023-05-31T03:53:44;1.88;;;0.50;;
70369;SDS011;57790;51.356;-2.906;2023-05-31T03:56:45;2.23;;;0.53;;
70369;SDS011;57790;51.356;-2.906;2023-05-31T03:59:45;3.57;;;0.57;;
70369;SDS011;57790;51.356;-2.906;2023-05-31T04:02:46;1.60;;;0.40;;
70369;SDS011;57790;51.356;-2.906;2023-05-31T04:05:46;2.75;;;0.77;;
70369;SDS011;57790;51.356;-2.906;2023-05-31T04:08:47;2.00;;;0.50;;
70369;SDS011;57790;51.356;-2.906;2023-05-31T04:11:47;1.67;;;0.40;;
70369;SDS011;57790;51.356;-2.906;2023-05-31T04:14:47;2.00;;;0.50;;
70369;SDS011;57790;51.356;-2.906;2023-05-31T04:17:48;2.47;;;0.60;;
70369;SDS011;57790;51.356;-2.906;2023-05-31T04:20:48;2.13;;;0.50;;
70369;SDS011;57790;51.356;-2.906;2023-05-31T04:23:48;1.53;;;0.50;;
70369;SDS011;57790;51.356;-2.906;2023-05-31T04:26:49;2.53;;;0.55;;
70369;SDS011;57790;51.356;-2.906;2023-05-31T04:29:49;1.40;;;0.50;;
70369;SDS011;57790;51.356;-2.906;2023-05-31T04:32:50;2.90;;;0.90;;
70369;SDS011;57790;51.356;-2.906;2023-05-31T04:35:52;1.63;;;0.60;;
70369;SDS011;57790;51.356;-2.906;2023-05-31T04:38:53;2.78;;;0.60;;
70369;SDS011;57790;51.356;-2.906;2023-05-31T04:41:55;3.33;;;0.50;;
70369;SDS011;57790;51.356;-2.906;2023-05-31T04:44:55;1.53;;;0.40;;
70369;SDS011;57790;51.356;-2.906;2023-05-31T04:47:58;1.58;;;0.50;;
70369;SDS011;57790;51.356;-2.906;2023-05-31T04:50:58;2.00;;;0.43;;
70369;SDS011;57790;51.356;-2.906;2023-05-31T04:53:59;2.47;;;0.53;;
70369;SDS011;57790;51.356;-2.906;2023-05-31T04:56:59;1.83;;;0.50;;
70369;SDS011;57790;51.356;-2.906;2023-05-31T05:00:01;2.92;;;0.47;;
70369;SDS011;57790;51.356;-2.906;2023-05-31T05:03:08;2.83;;;0.60;;
70369;SDS011;57790;51.356;-2.906;2023-05-31T05:06:15;3.13;;;0.60;;
70369;SDS011;57790;51.356;-2.906;2023-05-31T05:09:17;1.13;;;0.45;;
70369;SDS011;57790;51.356;-2.906;2023-05-31T05:12:18;1.23;;;0.40;;
70369;SDS011;57790;51.356;-2.906;2023-05-31T05:15:18;1.57;;;0.50;;
70369;SDS011;57790;51.356;-2.906;2023-05-31T05:18:19;1.13;;;0.40;;
70369;SDS011;57790;51.356;-2.906;2023-05-31T05:21:19;2.33;;;0.83;;
70369;SDS011;57790;51.356;-2.906;2023-05-31T05:24:20;1.47;;;0.43;;
70369;SDS011;57790;51.356;-2.906;2023-05-31T05:27:20;1.60;;;0.47;;
70369;SDS011;57790;51.356;-2.906;2023-05-31T05:30:21;1.57;;;0.50;;
70369;SDS011;57790;51.356;-2.906;2023-05-31T05:33:22;2.00;;;0.60;;
70369;SDS011;57790;51.356;-2.906;2023-05-31T05:36:22;1.65;;;0.50;;
70369;SDS011;57790;51.356;-2.906;2023-05-31T05:39:23;1.57;;;0.50;;
70369;SDS011;57790;51.356;-2.906;2023-05-31T05:42:23;2.03;;;0.50;;
70369;SDS011;57790;51.356;-2.906;2023-05-31T05:45:23;1.40;;;0.50;;
70369;SDS011;57790;51.356;-2.906;2023-05-31T05:48:24;2.90;;;0.50;;
70369;SDS011;57790;51.356;-2.906;2023-05-31T05:51:24;2.47;;;0.50;;
70369;SDS011;57790;51.356;-2.906;2023-05-31T05:54:25;2.53;;;0.50;;
70369;SDS011;57790;51.356;-2.906;2023-05-31T05:57:25;2.60;;;0.57;;
70369;SDS011;57790;51.356;-2.906;2023-05-31T06:00:26;2.50;;;0.60;;
70369;SDS011;57790;51.356;-2.906;2023-05-31T06:03:26;1.50;;;0.40;;
70369;SDS011;57790;51.356;-2.906;2023-05-31T06:06:27;1.52;;;0.50;;
70369;SDS011;57790;51.356;-2.906;2023-05-31T06:09:27;1.90;;;0.50;;
70369;SDS011;57790;51.356;-2.906;2023-05-31T06:12:28;2.57;;;0.50;;
70369;SDS011;57790;51.356;-2.906;2023-05-31T06:15:30;3.08;;;0.60;;
70369;SDS011;57790;51.356;-2.906;2023-05-31T06:18:30;2.10;;;0.60;;
70369;SDS011;57790;51.356;-2.906;2023-05-31T06:21:31;2.15;;;0.60;;
70369;SDS011;57790;51.356;-2.906;2023-05-31T06:24:32;2.83;;;0.50;;
70369;SDS011;57790;51.356;-2.906;2023-05-31T06:27:32;2.08;;;0.50;;
70369;SDS011;57790;51.356;-2.906;2023-05-31T06:30:32;2.93;;;0.50;;
70369;SDS011;57790;51.356;-2.906;2023-05-31T06:33:33;2.77;;;0.57;;
70369;SDS011;57790;51.356;-2.906;2023-05-31T06:36:33;2.23;;;0.67;;
70369;SDS011;57790;51.356;-2.906;2023-05-31T06:39:34;2.30;;;0.70;;
70369;SDS011;57790;51.356;-2.906;2023-05-31T06:42:34;2.67;;;0.60;;
70369;SDS011;57790;51.356;-2.906;2023-05-31T06:45:37;1.85;;;0.50;;
70369;SDS011;57790;51.356;-2.906;2023-05-31T06:48:41;1.67;;;0.50;;
70369;SDS011;57790;51.356;-2.906;2023-05-31T06:51:44;4.65;;;0.70;;
70369;SDS011;57790;51.356;-2.906;2023-05-31T06:54:44;6.30;;;0.67;;
70369;SDS011;57790;51.356;-2.906;2023-05-31T06:57:45;6.80;;;0.70;;
70369;SDS011;57790;51.356;-2.906;2023-05-31T07:00:45;4.30;;;0.60;;
70369;SDS011;57790;51.356;-2.906;2023-05-31T07:03:46;4.77;;;1.37;;
70369;SDS011;57790;51.356;-2.906;2023-05-31T07:06:46;5.33;;;0.70;;
70369;SDS011;57790;51.356;-2.906;2023-05-31T07:09:50;3.40;;;0.70;;
70369;SDS011;57790;51.356;-2.906;2023-05-31T07:12:51;1.73;;;0.40;;
70369;SDS011;57790;51.356;-2.906;2023-05-31T07:15:51;3.17;;;0.67;;
70369;SDS011;57790;51.356;-2.906;2023-05-31T07:18:52;2.53;;;0.60;;
70369;SDS011;57790;51.356;-2.906;2023-05-31T07:21:53;2.17;;;0.50;;
70369;SDS011;57790;51.356;-2.906;2023-05-31T07:24:53;2.60;;;0.60;;
70369;SDS011;57790;51.356;-2.906;2023-05-31T07:27:54;1.60;;;0.57;;
70369;SDS011;57790;51.356;-2.906;2023-05-31T07:30:54;2.57;;;0.60;;
70369;SDS011;57790;51.356;-2.906;2023-05-31T07:33:55;1.95;;;0.63;;
70369;SDS011;57790;51.356;-2.906;2023-05-31T07:36:55;2.53;;;0.53;;
70369;SDS011;57790;51.356;-2.906;2023-05-31T07:39:55;2.80;;;0.70;;
70369;SDS011;57790;51.356;-2.906;2023-05-31T07:42:56;2.57;;;0.50;;
70369;SDS011;57790;51.356;-2.906;2023-05-31T07:45:56;1.40;;;0.40;;
70369;SDS011;57790;51.356;-2.906;2023-05-31T07:48:57;3.33;;;0.50;;
70369;SDS011;57790;51.356;-2.906;2023-05-31T07:51:57;3.33;;;0.60;;
70369;SDS011;57790;51.356;-2.906;2023-05-31T07:54:58;2.38;;;0.50;;
70369;SDS011;57790;51.356;-2.906;2023-05-31T07:57:59;1.73;;;0.40;;
70369;SDS011;57790;51.356;-2.906;2023-05-31T08:00:59;2.00;;;0.60;;
70369;SDS011;57790;51.356;-2.906;2023-05-31T08:04:07;2.97;;;0.60;;
70369;SDS011;57790;51.356;-2.906;2023-05-31T08:07:08;2.03;;;0.50;;
70369;SDS011;57790;51.356;-2.906;2023-05-31T08:10:09;2.22;;;0.60;;
70369;SDS011;57790;51.356;-2.906;2023-05-31T08:13:11;2.58;;;0.50;;
70369;SDS011;57790;51.356;-2.906;2023-05-31T08:16:11;2.00;;;0.57;;
70369;SDS011;57790;51.356;-2.906;2023-05-31T08:19:11;1.57;;;0.57;;
70369;SDS011;57790;51.356;-2.906;2023-05-31T08:22:12;1.53;;;0.50;;
70369;SDS011;57790;51.356;-2.906;2023-05-31T08:25:13;1.85;;;0.50;;
70369;SDS011;57790;51.356;-2.906;2023-05-31T08:28:14;2.20;;;0.53;;
70369;SDS011;57790;51.356;-2.906;2023-05-31T08:31:14;1.25;;;0.40;;
70369;SDS011;57790;51.356;-2.906;2023-05-31T08:34:15;2.80;;;0.60;;
70369;SDS011;57790;51.356;-2.906;2023-05-31T08:37:15;2.80;;;0.80;;
70369;SDS011;57790;51.356;-2.906;2023-05-31T08:40:16;1.93;;;0.53;;
70369;SDS011;57790;51.356;-2.906;2023-05-31T08:43:16;1.20;;;0.40;;
70369;SDS011;57790;51.356;-2.906;2023-05-31T08:46:21;1.63;;;0.50;;
70369;SDS011;57790;51.356;-2.906;2023-05-31T08:49:22;1.83;;;0.40;;
70369;SDS011;57790;51.356;-2.906;2023-05-31T08:52:22;1.45;;;0.40;;
70369;SDS011;57790;51.356;-2.906;2023-05-31T08:55:23;2.67;;;0.60;;
70369;SDS011;57790;51.356;-2.906;2023-05-31T08:58:24;2.13;;;0.68;;
70369;SDS011;57790;51.356;-2.906;2023-05-31T09:01:25;1.90;;;0.50;;
70369;SDS011;57790;51.356;-2.906;2023-05-31T09:04:28;1.50;;;0.40;;
70369;SDS011;57790;51.356;-2.906;2023-05-31T09:07:29;2.07;;;0.50;;
70369;SDS011;57790;51.356;-2.906;2023-05-31T09:10:30;3.17;;;0.50;;
70369;SDS011;57790;51.356;-2.906;2023-05-31T09:13:30;1.90;;;0.50;;
70369;SDS011;57790;51.356;-2.906;2023-05-31T09:16:31;2.47;;;0.60;;
70369;SDS011;57790;51.356;-2.906;2023-05-31T09:19:31;2.00;;;0.50;;
70369;SDS011;57790;51.356;-2.906;2023-05-31T09:22:33;2.13;;;0.60;;
70369;SDS011;57790;51.356;-2.906;2023-05-31T09:25:43;1.30;;;0.50;;
70369;SDS011;57790;51.356;-2.906;2023-05-31T09:28:48;2.47;;;1.08;;
70369;SDS011;57790;51.356;-2.906;2023-05-31T09:32:06;1.55;;;0.70;;
70369;SDS011;57790;51.356;-2.906;2023-05-31T09:35:26;2.00;;;0.57;;
70369;SDS011;57790;51.356;-2.906;2023-05-31T09:38:34;1.42;;;0.50;;
70369;SDS011;57790;51.356;-2.906;2023-05-31T09:41:35;2.22;;;0.50;;
70369;SDS011;57790;51.356;-2.906;2023-05-31T09:44:36;2.00;;;0.60;;
70369;SDS011;57790;51.356;-2.906;2023-05-31T09:47:36;2.53;;;0.60;;
70369;SDS011;57790;51.356;-2.906;2023-05-31T09:50:37;2.17;;;0.50;;
70369;SDS011;57790;51.356;-2.906;2023-05-31T09:53:39;1.08;;;0.40;;
70369;SDS011;57790;51.356;-2.906;2023-05-31T09:56:41;2.45;;;0.60;;
70369;SDS011;57790;51.356;-2.906;2023-05-31T09:59:41;2.30;;;0.63;;
70369;SDS011;57790;51.356;-2.906;2023-05-31T10:02:42;1.70;;;0.57;;
70369;SDS011;57790;51.356;-2.906;2023-05-31T10:05:43;2.55;;;0.50;;
70369;SDS011;57790;51.356;-2.906;2023-05-31T10:08:44;1.60;;;0.60;;
70369;SDS011;57790;51.356;-2.906;2023-05-31T10:11:48;2.92;;;0.77;;
70369;SDS011;57790;51.356;-2.906;2023-05-31T10:14:53;2.58;;;0.57;;
70369;SDS011;57790;51.356;-2.906;2023-05-31T10:18:05;2.00;;;0.70;;
70369;SDS011;57790;51.356;-2.906;2023-05-31T10:21:15;2.60;;;0.70;;
70369;SDS011;57790;51.356;-2.906;2023-05-31T10:24:23;2.83;;;0.70;;
70369;SDS011;57790;51.356;-2.906;2023-05-31T10:27:29;3.80;;;0.70;;
70369;SDS011;57790;51.356;-2.906;2023-05-31T10:30:34;1.77;;;0.55;;
70369;SDS011;57790;51.356;-2.906;2023-05-31T10:33:39;2.63;;;0.60;;
70369;SDS011;57790;51.356;-2.906;2023-05-31T10:36:45;2.03;;;0.50;;
70369;SDS011;57790;51.356;-2.906;2023-05-31T10:39:53;2.30;;;0.60;;
70369;SDS011;57790;51.356;-2.906;2023-05-31T10:46:22;3.67;;;0.80;;
70369;SDS011;57790;51.356;-2.906;2023-05-31T10:49:26;2.67;;;0.60;;
70369;SDS011;57790;51.356;-2.906;2023-05-31T10:52:31;2.30;;;0.53;;
70369;SDS011;57790;51.356;-2.906;2023-05-31T10:55:32;2.15;;;0.50;;
70369;SDS011;57790;51.356;-2.906;2023-05-31T10:58:42;2.07;;;0.60;;
70369;SDS011;57790;51.356;-2.906;2023-05-31T11:01:47;2.85;;;0.73;;
70369;SDS011;57790;51.356;-2.906;2023-05-31T11:04:48;2.38;;;0.80;;
70369;SDS011;57790;51.356;-2.906;2023-05-31T11:07:49;1.70;;;0.50;;
70369;SDS011;57790;51.356;-2.906;2023-05-31T11:10:51;2.75;;;0.52;;
70369;SDS011;57790;51.356;-2.906;2023-05-31T11:14:26;3.00;;;0.93;;
70369;SDS011;57790;51.356;-2.906;2023-05-31T11:17:29;2.07;;;0.80;;
70369;SDS011;57790;51.356;-2.906;2023-05-31T11:20:38;2.20;;;0.70;;
70369;SDS011;57790;51.356;-2.906;2023-05-31T11:23:38;2.10;;;0.60;;
70369;SDS011;57790;51.356;-2.906;2023-05-31T11:26:51;1.60;;;0.60;;
70369;SDS011;57790;51.356;-2.906;2023-05-31T11:32:54;2.10;;;0.68;;
70369;SDS011;57790;51.356;-2.906;2023-05-31T11:35:55;3.87;;;1.10;;
70369;SDS011;57790;51.356;-2.906;2023-05-31T11:39:01;2.17;;;0.65;;
70369;SDS011;57790;51.356;-2.906;2023-05-31T11:42:02;2.47;;;0.70;;
70369;SDS011;57790;51.356;-2.906;2023-05-31T11:45:04;2.28;;;0.80;;
70369;SDS011;57790;51.356;-2.906;2023-05-31T11:48:24;1.83;;;0.80;;
70369;SDS011;57790;51.356;-2.906;2023-05-31T11:51:33;2.97;;;0.77;;
70369;SDS011;57790;51.356;-2.906;2023-05-31T11:54:34;3.87;;;0.80;;
70369;SDS011;57790;51.356;-2.906;2023-05-31T11:57:45;2.47;;;0.90;;
70369;SDS011;57790;51.356;-2.906;2023-05-31T12:00:51;3.15;;;0.90;;
70369;SDS011;57790;51.356;-2.906;2023-05-31T12:03:59;3.33;;;0.80;;
70369;SDS011;57790;51.356;-2.906;2023-05-31T12:07:00;3.58;;;0.90;;
70369;SDS011;57790;51.356;-2.906;2023-05-31T12:10:00;3.28;;;0.88;;
70369;SDS011;57790;51.356;-2.906;2023-05-31T12:13:05;3.00;;;0.80;;
70369;SDS011;57790;51.356;-2.906;2023-05-31T12:16:05;3.13;;;0.73;;
70369;SDS011;57790;51.356;-2.906;2023-05-31T12:19:10;2.80;;;0.83;;
70369;SDS011;57790;51.356;-2.906;2023-05-31T12:22:11;2.85;;;0.95;;
70369;SDS011;57790;51.356;-2.906;2023-05-31T12:25:12;2.30;;;0.80;;
70369;SDS011;57790;51.356;-2.906;2023-05-31T12:28:16;2.53;;;0.68;;
70369;SDS011;57790;51.356;-2.906;2023-05-31T12:31:21;3.55;;;1.00;;
70369;SDS011;57790;51.356;-2.906;2023-05-31T12:34:23;2.85;;;0.85;;
70369;SDS011;57790;51.356;-2.906;2023-05-31T12:37:23;3.17;;;0.90;;
70369;SDS011;57790;51.356;-2.906;2023-05-31T12:40:24;3.73;;;0.90;;
70369;SDS011;57790;51.356;-2.906;2023-05-31T12:43:24;5.35;;;1.10;;
70369;SDS011;57790;51.356;-2.906;2023-05-31T12:46:25;2.90;;;0.80;;
70369;SDS011;57790;51.356;-2.906;2023-05-31T12:49:26;3.43;;;1.03;;
70369;SDS011;57790;51.356;-2.906;2023-05-31T12:52:30;3.05;;;0.82;;
70369;SDS011;57790;51.356;-2.906;2023-05-31T12:55:33;3.63;;;1.13;;
70369;SDS011;57790;51.356;-2.906;2023-05-31T12:58:33;4.10;;;1.10;;
70369;SDS011;57790;51.356;-2.906;2023-05-31T13:01:35;3.40;;;0.90;;
70369;SDS011;57790;51.356;-2.906;2023-05-31T13:04:38;3.22;;;1.00;;
70369;SDS011;57790;51.356;-2.906;2023-05-31T13:07:38;4.57;;;1.20;;
70369;SDS011;57790;51.356;-2.906;2023-05-31T13:10:39;3.22;;;1.10;;
70369;SDS011;57790;51.356;-2.906;2023-05-31T13:13:40;3.77;;;1.07;;
70369;SDS011;57790;51.356;-2.906;2023-05-31T13:16:42;4.38;;;1.05;;
70369;SDS011;57790;51.356;-2.906;2023-05-31T13:19:42;4.70;;;1.03;;
70369;SDS011;57790;51.356;-2.906;2023-05-31T13:22:43;2.63;;;0.77;;
70369;SDS011;57790;51.356;-2.906;2023-05-31T13:25:43;4.30;;;0.98;;
70369;SDS011;57790;51.356;-2.906;2023-05-31T13:28:44;3.67;;;0.90;;
70369;SDS011;57790;51.356;-2.906;2023-05-31T13:31:45;4.13;;;1.30;;
70369;SDS011;57790;51.356;-2.906;2023-05-31T13:34:45;4.20;;;1.13;;
70369;SDS011;57790;51.356;-2.906;2023-05-31T13:37:46;4.70;;;1.30;;
70369;SDS011;57790;51.356;-2.906;2023-05-31T13:40:46;4.80;;;1.20;;
70369;SDS011;57790;51.356;-2.906;2023-05-31T13:43:46;5.27;;;1.20;;
70369;SDS011;57790;51.356;-2.906;2023-05-31T13:46:48;5.20;;;1.10;;
70369;SDS011;57790;51.356;-2.906;2023-05-31T13:49:49;4.47;;;1.10;;
70369;SDS011;57790;51.356;-2.906;2023-05-31T13:52:49;5.85;;;1.00;;
70369;SDS011;57790;51.356;-2.906;2023-05-31T13:55:50;3.00;;;0.90;;
70369;SDS011;57790;51.356;-2.906;2023-05-31T13:58:51;5.32;;;0.93;;
70369;SDS011;57790;51.356;-2.906;2023-05-31T14:01:52;4.38;;;1.10;;
70369;SDS011;57790;51.356;-2.906;2023-05-31T14:04:52;5.37;;;1.00;;
70369;SDS011;57790;51.356;-2.906;2023-05-31T14:07:53;3.87;;;1.17;;
70369;SDS011;57790;51.356;-2.906;2023-05-31T14:10:53;4.67;;;1.30;;
70369;SDS011;57790;51.356;-2.906;2023-05-31T14:13:53;3.33;;;1.20;;
70369;SDS011;57790;51.356;-2.906;2023-05-31T14:16:54;3.92;;;1.30;;
70369;SDS011;57790;51.356;-2.906;2023-05-31T14:19:54;4.87;;;1.13;;
70369;SDS011;57790;51.356;-2.906;2023-05-31T14:22:55;4.03;;;1.03;;
70369;SDS011;57790;51.356;-2.906;2023-05-31T14:25:55;4.10;;;1.13;;
70369;SDS011;57790;51.356;-2.906;2023-05-31T14:28:57;4.05;;;1.08;;
70369;SDS011;57790;51.356;-2.906;2023-05-31T14:31:57;4.10;;;1.20;;
70369;SDS011;57790;51.356;-2.906;2023-05-31T14:34:58;5.68;;;1.20;;
70369;SDS011;57790;51.356;-2.906;2023-05-31T14:37:58;3.77;;;1.33;;
70369;SDS011;57790;51.356;-2.906;2023-05-31T14:40:59;4.87;;;1.40;;
70369;SDS011;57790;51.356;-2.906;2023-05-31T14:43:59;3.77;;;1.27;;
70369;SDS011;57790;51.356;-2.906;2023-05-31T14:46:59;5.13;;;1.63;;
70369;SDS011;57790;51.356;-2.906;2023-05-31T14:50:00;6.23;;;1.87;;
70369;SDS011;57790;51.356;-2.906;2023-05-31T14:53:01;5.97;;;1.60;;
70369;SDS011;57790;51.356;-2.906;2023-05-31T14:56:01;6.32;;;2.10;;
70369;SDS011;57790;51.356;-2.906;2023-05-31T14:59:02;6.27;;;1.87;;
70369;SDS011;57790;51.356;-2.906;2023-05-31T15:02:03;5.87;;;1.70;;
70369;SDS011;57790;51.356;-2.906;2023-05-31T15:05:03;6.72;;;2.00;;
70369;SDS011;57790;51.356;-2.906;2023-05-31T15:08:04;6.23;;;1.87;;
70369;SDS011;57790;51.356;-2.906;2023-05-31T15:11:05;5.57;;;2.10;;
70369;SDS011;57790;51.356;-2.906;2023-05-31T15:14:05;5.53;;;1.80;;
70369;SDS011;57790;51.356;-2.906;2023-05-31T15:17:06;6.53;;;1.83;;
70369;SDS011;57790;51.356;-2.906;2023-05-31T15:20:06;6.83;;;2.03;;
70369;SDS011;57790;51.356;-2.906;2023-05-31T15:23:07;6.07;;;1.90;;
70369;SDS011;57790;51.356;-2.906;2023-05-31T15:26:07;6.87;;;2.20;;
70369;SDS011;57790;51.356;-2.906;2023-05-31T15:29:08;5.63;;;1.80;;
70369;SDS011;57790;51.356;-2.906;2023-05-31T15:32:08;5.93;;;2.00;;
70369;SDS011;57790;51.356;-2.906;2023-05-31T15:35:09;6.00;;;1.90;;
70369;SDS011;57790;51.356;-2.906;2023-05-31T15:38:09;5.07;;;1.70;;
70369;SDS011;57790;51.356;-2.906;2023-05-31T15:41:10;6.88;;;1.90;;
70369;SDS011;57790;51.356;-2.906;2023-05-31T15:44:10;5.43;;;1.83;;
70369;SDS011;57790;51.356;-2.906;2023-05-31T15:47:13;5.57;;;1.67;;
70369;SDS011;57790;51.356;-2.906;2023-05-31T15:50:14;5.57;;;1.90;;
70369;SDS011;57790;51.356;-2.906;2023-05-31T15:53:15;5.22;;;1.70;;
70369;SDS011;57790;51.356;-2.906;2023-05-31T15:56:15;6.67;;;1.90;;
70369;SDS011;57790;51.356;-2.906;2023-05-31T15:59:16;6.13;;;1.90;;
70369;SDS011;57790;51.356;-2.906;2023-05-31T16:02:16;5.73;;;1.97;;
70369;SDS011;57790;51.356;-2.906;2023-05-31T16:05:16;6.63;;;2.00;;
70369;SDS011;57790;51.356;-2.906;2023-05-31T16:08:17;6.13;;;2.10;;
70369;SDS011;57790;51.356;-2.906;2023-05-31T16:11:17;6.90;;;1.90;;
70369;SDS011;57790;51.356;-2.906;2023-05-31T16:14:17;7.20;;;2.20;;
70369;SDS011;57790;51.356;-2.906;2023-05-31T16:17:18;6.87;;;2.33;;
70369;SDS011;57790;51.356;-2.906;2023-05-31T16:20:18;6.90;;;2.10;;
70369;SDS011;57790;51.356;-2.906;2023-05-31T16:23:19;6.23;;;2.10;;
70369;SDS011;57790;51.356;-2.906;2023-05-31T16:26:19;7.67;;;2.23;;
70369;SDS011;57790;51.356;-2.906;2023-05-31T16:29:20;6.25;;;1.85;;
70369;SDS011;57790;51.356;-2.906;2023-05-31T16:32:20;6.87;;;2.07;;
70369;SDS011;57790;51.356;-2.906;2023-05-31T16:35:21;6.90;;;2.10;;
70369;SDS011;57790;51.356;-2.906;2023-05-31T16:38:21;6.20;;;2.20;;
70369;SDS011;57790;51.356;-2.906;2023-05-31T16:41:21;7.25;;;2.38;;
70369;SDS011;57790;51.356;-2.906;2023-05-31T16:44:22;7.23;;;2.13;;
70369;SDS011;57790;51.356;-2.906;2023-05-31T16:47:22;7.00;;;2.20;;
70369;SDS011;57790;51.356;-2.906;2023-05-31T16:50:23;8.57;;;2.30;;
70369;SDS011;57790;51.356;-2.906;2023-05-31T16:53:23;8.40;;;2.30;;
70369;SDS011;57790;51.356;-2.906;2023-05-31T16:56:23;6.55;;;2.28;;
70369;SDS011;57790;51.356;-2.906;2023-05-31T16:59:24;7.93;;;2.17;;
70369;SDS011;57790;51.356;-2.906;2023-05-31T17:02:25;6.97;;;2.30;;
70369;SDS011;57790;51.356;-2.906;2023-05-31T17:05:25;8.33;;;2.30;;
70369;SDS011;57790;51.356;-2.906;2023-05-31T17:08:26;7.13;;;2.07;;
70369;SDS011;57790;51.356;-2.906;2023-05-31T17:11:26;7.00;;;2.30;;
70369;SDS011;57790;51.356;-2.906;2023-05-31T17:14:26;8.70;;;2.27;;
70369;SDS011;57790;51.356;-2.906;2023-05-31T17:17:27;6.35;;;2.08;;
70369;SDS011;57790;51.356;-2.906;2023-05-31T17:20:27;6.13;;;2.07;;
70369;SDS011;57790;51.356;-2.906;2023-05-31T17:23:28;6.67;;;2.10;;
70369;SDS011;57790;51.356;-2.906;2023-05-31T17:26:28;7.53;;;2.40;;
70369;SDS011;57790;51.356;-2.906;2023-05-31T17:29:28;5.53;;;1.90;;
70369;SDS011;57790;51.356;-2.906;2023-05-31T17:32:29;7.17;;;2.43;;
70369;SDS011;57790;51.356;-2.906;2023-05-31T17:35:29;6.45;;;2.00;;
70369;SDS011;57790;51.356;-2.906;2023-05-31T17:38:30;5.80;;;2.20;;
70369;SDS011;57790;51.356;-2.906;2023-05-31T17:41:30;9.60;;;2.30;;
70369;SDS011;57790;51.356;-2.906;2023-05-31T17:44:31;6.83;;;2.07;;
70369;SDS011;57790;51.356;-2.906;2023-05-31T17:47:32;7.82;;;2.30;;
70369;SDS011;57790;51.356;-2.906;2023-05-31T17:50:32;6.50;;;2.10;;
70369;SDS011;57790;51.356;-2.906;2023-05-31T17:53:32;7.87;;;2.37;;
70369;SDS011;57790;51.356;-2.906;2023-05-31T17:56:33;7.07;;;2.30;;
70369;SDS011;57790;51.356;-2.906;2023-05-31T17:59:33;6.88;;;1.92;;
70369;SDS011;57790;51.356;-2.906;2023-05-31T18:02:34;7.20;;;2.17;;
70369;SDS011;57790;51.356;-2.906;2023-05-31T18:05:34;7.57;;;2.20;;
70369;SDS011;57790;51.356;-2.906;2023-05-31T18:08:35;7.13;;;2.25;;
70369;SDS011;57790;51.356;-2.906;2023-05-31T18:11:35;6.77;;;2.27;;
70369;SDS011;57790;51.356;-2.906;2023-05-31T18:14:36;6.67;;;2.10;;
70369;SDS011;57790;51.356;-2.906;2023-05-31T18:17:36;6.53;;;2.17;;